Time;durP1;ratioP1;P1;durP2;ratioP2;P2;SDS_P1;SDS_P2;PMS_P1;PMS_P2;Temp;Humidity;BMP_temperature;BMP_pressure;BME280_temperature;BME280_humidity;BME280_pressure;Samples;Min_cycle;Max_cycle;Signal;HPM_P1;HPM_P2
2022/11/30 00:02:20;;;;;;;;;;;7.00;90.50;;;;;;5019720;28;19932;-75
2022/11/30 00:04:46;;;;;;;;;;;7.00;90.50;;;;;;5035078;28;19920;-75
2022/11/30 00:07:11;;;;;;;;;;;7.00;90.50;;;;;;5034503;28;19928;-75
2022/11/30 00:09:37;;;;;;;;;;;7.00;90.50;;;;;;5052937;28;19963;-75
2022/11/30 00:12:02;;;;;;;;;;;7.00;90.50;;;;;;5050028;28;19913;-74
2022/11/30 00:14:28;;;;;;;;;;;7.00;90.50;;;;;;5017748;28;19921;-74
2022/11/30 00:16:53;;;;;;;;;;;7.00;90.50;;;;;;5016775;28;20523;-75
2022/11/30 00:19:19;;;;;;;;;;;7.00;90.50;;;;;;5041031;28;20063;-75
2022/11/30 00:21:44;;;;;;;;;;;7.00;90.50;;;;;;5019892;28;19927;-75
2022/11/30 00:24:10;;;;;;;;;;;7.00;90.50;;;;;;5032876;28;19980;-74
2022/11/30 00:26:35;;;;;;;;;;;7.00;90.50;;;;;;5049573;28;19951;-74
2022/11/30 00:29:01;;;;;;;;;;;7.00;90.50;;;;;;5032747;28;19935;-74
2022/11/30 00:31:26;;;;;;;;;;;7.00;90.50;;;;;;5031756;28;19939;-74
2022/11/30 00:33:52;;;;;;;;;;;7.00;90.50;;;;;;5034100;28;19917;-74
2022/11/30 00:36:18;;;;;;;;;;;7.00;90.50;;;;;;5030841;28;20420;-74
2022/11/30 00:38:44;;;;;;;;;;;7.00;90.50;;;;;;5034193;28;19921;-74
2022/11/30 00:41:09;;;;;;;;;;;7.00;90.50;;;;;;5036774;28;19936;-75
2022/11/30 00:43:35;;;;;;;;;;;7.00;90.50;;;;;;5045104;28;20335;-76
2022/11/30 00:46:00;;;;;;;;;;;7.00;90.50;;;;;;5034118;28;19923;-75
2022/11/30 00:48:26;;;;;;;;;;;7.00;90.50;;;;;;5053224;28;19921;-76
2022/11/30 00:50:51;;;;;;;;;;;7.00;90.50;;;;;;5055080;28;19927;-75
2022/11/30 00:53:17;;;;;;;;;;;7.00;90.50;;;;;;5038388;28;19928;-76
2022/11/30 00:55:42;;;;;;;;;;;7.00;90.50;;;;;;5055189;28;19925;-77
2022/11/30 00:58:08;;;;;;;;;;;7.00;90.50;;;;;;5056680;28;19920;-76
2022/11/30 01:00:33;;;;;;;;;;;6.90;90.50;;;;;;5055022;28;19959;-75
2022/11/30 01:02:59;;;;;;;;;;;7.00;90.50;;;;;;5036591;28;19921;-75
2022/11/30 01:05:24;;;;;;;;;;;6.90;90.50;;;;;;5019487;28;19925;-76
2022/11/30 01:07:50;;;;;;;;;;;7.00;90.50;;;;;;5035258;28;20066;-75
2022/11/30 01:10:15;;;;;;;;;;;7.00;90.50;;;;;;5053762;28;20304;-76
2022/11/30 01:12:41;;;;;;;;;;;7.00;90.50;;;;;;5039135;28;19920;-76
2022/11/30 01:15:07;;;;;;;;;;;7.00;90.50;;;;;;5022017;28;19927;-76
2022/11/30 01:17:32;;;;;;;;;;;6.90;90.50;;;;;;5036638;28;19925;-76
2022/11/30 01:19:58;;;;;;;;;;;7.00;90.50;;;;;;5037154;28;20355;-75
2022/11/30 01:22:23;;;;;;;;;;;6.90;90.50;;;;;;5025840;28;19923;-76
2022/11/30 01:24:49;;;;;;;;;;;6.90;90.50;;;;;;5041271;28;19923;-76
2022/11/30 01:27:14;;;;;;;;;;;6.90;90.50;;;;;;5038570;28;19978;-76
2022/11/30 01:29:40;;;;;;;;;;;6.90;90.50;;;;;;5041963;28;20204;-76
2022/11/30 01:32:05;;;;;;;;;;;7.00;90.50;;;;;;5039368;28;19925;-75
2022/11/30 01:34:30;;;;;;;;;;;6.90;90.50;;;;;;5040618;28;19924;-76
2022/11/30 01:36:56;;;;;;;;;;;6.90;90.50;;;;;;5041027;28;19943;-75
2022/11/30 01:39:21;;;;;;;;;;;6.90;90.50;;;;;;5057582;28;20067;-75
2022/11/30 01:41:47;;;;;;;;;;;6.90;90.50;;;;;;5059946;28;19913;-76
2022/11/30 01:44:12;;;;;;;;;;;7.00;90.50;;;;;;5057020;28;19912;-76
2022/11/30 01:46:48;;;;;;;;;;;6.90;90.50;;;;;;5055777;28;19921;-76
2022/11/30 01:49:13;;;;;;;;;;;6.90;90.50;;;;;;5044906;28;19944;-75
2022/11/30 01:51:41;;;;;;;;;;;6.90;90.50;;;;;;5056728;28;19917;-75
2022/11/30 01:54:07;;;;;;;;;;;6.90;90.90;;;;;;5028713;28;19917;-73
2022/11/30 01:56:32;;;;;;;;;;;6.90;90.50;;;;;;5034682;28;19932;-75
2022/11/30 01:58:58;;;;;;;;;;;6.90;90.50;;;;;;5057054;28;20015;-76
2022/11/30 02:01:24;;;;;;;;;;;6.90;90.50;;;;;;5040220;28;19921;-76
2022/11/30 02:04:00;;;;;;;;;;;6.90;90.50;;;;;;5057851;28;19923;-75
2022/11/30 02:06:26;;;;;;;;;;;6.90;90.50;;;;;;5011142;28;19987;-76
2022/11/30 02:08:51;;;;;;;;;;;6.90;90.50;;;;;;5038751;28;19971;-74
2022/11/30 02:11:17;;;;;;;;;;;6.90;90.50;;;;;;5037218;28;20365;-75
2022/11/30 02:13:56;;;;;;;;;;;6.90;90.50;;;;;;5013946;28;19921;-76
2022/11/30 02:16:33;;;;;;;;;;;6.90;90.50;;;;;;5013540;28;20067;-76
2022/11/30 02:18:59;;;;;;;;;;;6.90;90.50;;;;;;5048167;28;20516;-76
2022/11/30 02:21:27;;;;;;;;;;;6.90;90.50;;;;;;5055591;28;19932;-76
2022/11/30 02:23:57;;;;;;;;;;;6.90;90.50;;;;;;5038143;28;20377;-75
2022/11/30 02:26:35;;;;;;;;;;;6.90;90.50;;;;;;5038879;28;19984;-75
2022/11/30 02:29:05;;;;;;;;;;;6.90;90.50;;;;;;5035352;28;19963;-76
2022/11/30 02:31:39;;;;;;;;;;;6.90;90.60;;;;;;5040186;28;19921;-75
2022/11/30 02:34:04;;;;;;;;;;;6.90;90.60;;;;;;5039530;28;19963;-77
2022/11/30 02:36:30;;;;;;;;;;;6.90;90.50;;;;;;5057789;28;19928;-76
2022/11/30 02:38:55;;;;;;;;;;;6.90;90.50;;;;;;5041091;28;19921;-76
2022/11/30 02:41:21;;;;;;;;;;;6.80;90.50;;;;;;5024031;28;20330;-76
2022/11/30 02:43:46;;;;;;;;;;;6.90;90.50;;;;;;5058385;28;20448;-76
2022/11/30 02:46:18;;;;;;;;;;;6.80;90.50;;;;;;5040082;28;19968;-77
2022/11/30 02:48:43;;;;;;;;;;;6.90;90.50;;;;;;5021268;28;19927;-75
2022/11/30 02:51:09;;;;;;;;;;;6.80;90.50;;;;;;5041359;28;19972;-74
2022/11/30 02:53:35;;;;;;;;;;;6.80;90.50;;;;;;5043366;28;20896;-77
2022/11/30 02:56:00;;;;;;;;;;;6.90;90.60;;;;;;5024321;28;19924;-75
2022/11/30 02:58:26;;;;;;;;;;;6.80;90.50;;;;;;5029070;28;19924;-77
2022/11/30 03:00:52;;;;;;;;;;;6.80;90.50;;;;;;5041046;28;19976;-77
2022/11/30 03:03:18;;;;;;;;;;;6.80;90.50;;;;;;5035686;28;19952;-78
2022/11/30 03:05:43;;;;;;;;;;;6.80;90.50;;;;;;5055263;28;19924;-77
2022/11/30 03:08:09;;;;;;;;;;;6.80;90.50;;;;;;5057570;28;19939;-75
2022/11/30 03:10:34;;;;;;;;;;;6.80;90.50;;;;;;5038917;28;19924;-75
2022/11/30 03:13:00;;;;;;;;;;;6.80;90.50;;;;;;5056067;28;19931;-75
2022/11/30 03:15:25;;;;;;;;;;;6.80;90.50;;;;;;5054804;28;21102;-76
2022/11/30 03:17:51;;;;;;;;;;;6.80;90.60;;;;;;5023323;28;20408;-76
2022/11/30 03:20:16;;;;;;;;;;;6.80;90.60;;;;;;5038648;28;19920;-76
2022/11/30 03:22:42;;;;;;;;;;;6.80;90.50;;;;;;5057055;28;19962;-76
2022/11/30 03:25:07;;;;;;;;;;;6.80;90.60;;;;;;5023167;28;19917;-76
2022/11/30 03:27:33;;;;;;;;;;;6.80;90.60;;;;;;5046474;28;20340;-76
2022/11/30 03:29:58;;;;;;;;;;;6.80;90.60;;;;;;5038799;28;19940;-77
2022/11/30 03:32:24;;;;;;;;;;;6.80;90.60;;;;;;5054713;28;19932;-77
2022/11/30 03:34:49;;;;;;;;;;;6.80;90.60;;;;;;5053874;28;19921;-77
2022/11/30 03:37:15;;;;;;;;;;;6.80;90.60;;;;;;5043976;28;19972;-77
2022/11/30 03:39:40;;;;;;;;;;;6.80;90.60;;;;;;5052959;28;20010;-77
2022/11/30 03:42:05;;;;;;;;;;;6.80;90.60;;;;;;5036555;28;19917;-76
2022/11/30 03:44:31;;;;;;;;;;;6.80;90.60;;;;;;5036100;28;20570;-76
2022/11/30 03:46:56;;;;;;;;;;;6.80;90.60;;;;;;5035296;28;19913;-76
2022/11/30 03:49:22;;;;;;;;;;;6.80;90.60;;;;;;5055537;28;19920;-76
2022/11/30 03:51:47;;;;;;;;;;;6.80;90.60;;;;;;5054608;28;20015;-76
2022/11/30 03:54:13;;;;;;;;;;;6.80;90.60;;;;;;5053786;28;19924;-75
2022/11/30 03:56:38;;;;;;;;;;;6.80;90.60;;;;;;5035981;28;20327;-77
2022/11/30 03:59:04;;;;;;;;;;;6.80;90.60;;;;;;5055281;28;19921;-77
2022/11/30 04:01:29;;;;;;;;;;;6.80;90.60;;;;;;5052664;28;19921;-76
2022/11/30 04:03:54;;;;;;;;;;;6.80;90.60;;;;;;5054706;28;19916;-77
2022/11/30 04:06:20;;;;;;;;;;;6.80;90.60;;;;;;5037416;28;19932;-76
2022/11/30 04:08:45;;;;;;;;;;;6.80;90.60;;;;;;5049304;28;19920;-76
2022/11/30 04:11:11;;;;;;;;;;;6.80;90.60;;;;;;5053561;28;20574;-76
2022/11/30 04:13:37;;;;;;;;;;;6.80;90.60;;;;;;5032556;28;19999;-76
2022/11/30 04:16:02;;;;;;;;;;;6.80;90.60;;;;;;5038428;28;19917;-76
2022/11/30 04:18:28;;;;;;;;;;;6.80;90.60;;;;;;5052674;28;20606;-76
2022/11/30 04:20:54;;;;;;;;;;;6.80;90.60;;;;;;5037780;28;19917;-76
2022/11/30 04:23:20;;;;;;;;;;;6.80;90.60;;;;;;5036143;28;20436;-76
2022/11/30 04:25:46;;;;;;;;;;;6.80;90.60;;;;;;5055312;28;19928;-76
2022/11/30 04:28:12;;;;;;;;;;;6.80;90.60;;;;;;5018774;28;19929;-76
2022/11/30 04:30:38;;;;;;;;;;;6.80;90.60;;;;;;5051784;28;20015;-76
2022/11/30 04:33:03;;;;;;;;;;;6.80;90.60;;;;;;5053135;28;19952;-76
2022/11/30 04:35:29;;;;;;;;;;;6.80;90.60;;;;;;5039765;28;19924;-76
2022/11/30 04:37:54;;;;;;;;;;;6.80;90.60;;;;;;5054191;28;19921;-76
2022/11/30 04:40:20;;;;;;;;;;;6.80;90.60;;;;;;5036007;28;19952;-75
2022/11/30 04:42:45;;;;;;;;;;;6.80;90.60;;;;;;5054635;28;19917;-76
2022/11/30 04:45:10;;;;;;;;;;;6.80;90.60;;;;;;5053427;28;19956;-76
2022/11/30 04:47:36;;;;;;;;;;;6.80;90.60;;;;;;5034922;28;19924;-76
2022/11/30 04:50:02;;;;;;;;;;;6.80;90.60;;;;;;5052983;28;19974;-76
2022/11/30 04:52:27;;;;;;;;;;;6.80;90.60;;;;;;5020890;28;19916;-76
2022/11/30 04:54:53;;;;;;;;;;;6.80;90.60;;;;;;5037909;28;19928;-75
2022/11/30 04:57:18;;;;;;;;;;;6.80;90.60;;;;;;5036408;28;19917;-77
2022/11/30 04:59:44;;;;;;;;;;;6.80;90.60;;;;;;5024988;28;20701;-76
2022/11/30 05:02:09;;;;;;;;;;;6.80;90.60;;;;;;5054338;28;19920;-77
2022/11/30 05:04:35;;;;;;;;;;;6.80;90.60;;;;;;5057149;28;19928;-77
2022/11/30 05:07:00;;;;;;;;;;;6.80;90.60;;;;;;5030864;28;20411;-76
2022/11/30 05:09:26;;;;;;;;;;;6.80;90.60;;;;;;5052952;28;20404;-76
2022/11/30 05:11:51;;;;;;;;;;;6.80;90.60;;;;;;5054073;28;19928;-77
2022/11/30 05:14:17;;;;;;;;;;;6.80;90.60;;;;;;5027896;28;19917;-76
2022/11/30 05:16:42;;;;;;;;;;;6.80;90.60;;;;;;5041459;28;19980;-76
2022/11/30 05:19:08;;;;;;;;;;;6.80;90.60;;;;;;5050581;28;19929;-76
2022/11/30 05:21:33;;;;;;;;;;;6.80;90.60;;;;;;5055994;28;19980;-76
2022/11/30 05:23:59;;;;;;;;;;;6.80;90.60;;;;;;5008775;28;19967;-76
2022/11/30 05:26:24;;;;;;;;;;;6.80;90.60;;;;;;5056078;28;19932;-76
2022/11/30 05:28:49;;;;;;;;;;;6.80;90.60;;;;;;5035089;28;19924;-77
2022/11/30 05:31:15;;;;;;;;;;;6.80;90.60;;;;;;5048130;28;20218;-76
2022/11/30 05:33:41;;;;;;;;;;;6.80;90.60;;;;;;5032225;28;19921;-75
2022/11/30 05:36:07;;;;;;;;;;;6.80;90.60;;;;;;5054071;28;19935;-76
2022/11/30 05:38:32;;;;;;;;;;;6.80;90.60;;;;;;5053372;28;20799;-76
2022/11/30 05:40:59;;;;;;;;;;;6.80;90.60;;;;;;5049278;28;19917;-76
2022/11/30 05:43:24;;;;;;;;;;;6.80;90.60;;;;;;5033136;28;19973;-77
2022/11/30 05:45:50;;;;;;;;;;;6.80;90.60;;;;;;4998200;28;19957;-76
2022/11/30 05:48:15;;;;;;;;;;;6.80;90.60;;;;;;5034868;28;19921;-75
2022/11/30 05:50:41;;;;;;;;;;;6.80;90.60;;;;;;5054196;28;19921;-75
2022/11/30 05:53:06;;;;;;;;;;;6.80;90.60;;;;;;5018299;28;19917;-76
2022/11/30 05:55:32;;;;;;;;;;;6.80;90.60;;;;;;5036832;28;19900;-76
2022/11/30 05:57:57;;;;;;;;;;;6.80;90.60;;;;;;5034795;28;19925;-76
2022/11/30 06:00:23;;;;;;;;;;;6.80;90.60;;;;;;5039658;28;19921;-75
2022/11/30 06:02:53;;;;;;;;;;;6.80;90.60;;;;;;5056863;28;20143;-75
2022/11/30 06:05:19;;;;;;;;;;;6.80;90.60;;;;;;5020687;28;19924;-76
2022/11/30 06:07:44;;;;;;;;;;;6.80;90.60;;;;;;5030812;28;19929;-76
2022/11/30 06:10:10;;;;;;;;;;;6.80;90.60;;;;;;5055267;28;20451;-75
2022/11/30 06:12:35;;;;;;;;;;;6.80;90.60;;;;;;5057845;28;19916;-76
2022/11/30 06:15:01;;;;;;;;;;;6.80;90.60;;;;;;5044434;28;19931;-76
2022/11/30 06:17:26;;;;;;;;;;;6.80;90.60;;;;;;5013206;28;20573;-76
2022/11/30 06:19:52;;;;;;;;;;;6.80;90.60;;;;;;5035182;28;19952;-75
2022/11/30 06:22:17;;;;;;;;;;;6.80;90.60;;;;;;5034771;28;19921;-76
2022/11/30 06:24:43;;;;;;;;;;;6.80;90.60;;;;;;5033287;28;20459;-74
2022/11/30 06:27:08;;;;;;;;;;;6.80;90.60;;;;;;5014137;28;19972;-73
2022/11/30 06:29:34;;;;;;;;;;;6.80;90.60;;;;;;4999488;28;19927;-75
2022/11/30 06:31:59;;;;;;;;;;;6.80;90.60;;;;;;5006953;28;20787;-75
2022/11/30 06:34:25;;;;;;;;;;;6.80;90.60;;;;;;5035735;28;19925;-76
2022/11/30 06:36:50;;;;;;;;;;;6.80;90.60;;;;;;5036125;28;20255;-76
2022/11/30 06:39:16;;;;;;;;;;;6.80;90.60;;;;;;5034329;28;19980;-76
2022/11/30 06:41:41;;;;;;;;;;;6.80;90.60;;;;;;5036108;28;19921;-76
2022/11/30 06:44:07;;;;;;;;;;;6.80;90.60;;;;;;5036574;28;20011;-75
2022/11/30 06:46:33;;;;;;;;;;;6.80;90.60;;;;;;5036769;28;20351;-76
2022/11/30 06:48:58;;;;;;;;;;;6.80;90.60;;;;;;5036968;28;20031;-76
2022/11/30 06:51:24;;;;;;;;;;;6.80;90.60;;;;;;5034938;28;19955;-75
2022/11/30 06:53:49;;;;;;;;;;;6.80;90.60;;;;;;5035837;28;19925;-76
2022/11/30 06:56:15;;;;;;;;;;;6.80;90.60;;;;;;5031718;28;20528;-76
2022/11/30 06:58:40;;;;;;;;;;;6.80;90.60;;;;;;5036463;28;19917;-76
2022/11/30 07:01:06;;;;;;;;;;;6.80;90.60;;;;;;5035196;28;19921;-76
2022/11/30 07:03:32;;;;;;;;;;;6.80;90.60;;;;;;5023267;28;19921;-75
2022/11/30 07:05:57;;;;;;;;;;;6.80;90.60;;;;;;5050863;28;19956;-75
2022/11/30 07:08:23;;;;;;;;;;;6.80;90.60;;;;;;5031638;28;20417;-77
2022/11/30 07:10:48;;;;;;;;;;;6.80;90.60;;;;;;5034011;28;19934;-76
2022/11/30 07:13:15;;;;;;;;;;;6.80;90.60;;;;;;5035299;28;19988;-76
2022/11/30 07:15:40;;;;;;;;;;;6.80;90.60;;;;;;5034193;28;19917;-75
2022/11/30 07:18:06;;;;;;;;;;;6.80;90.60;;;;;;5030344;28;19929;-75
2022/11/30 07:20:33;;;;;;;;;;;6.80;90.60;;;;;;5047260;28;21371;-76
2022/11/30 07:26:05;;;;;;;;;;;6.80;90.60;;;;;;5038805;28;19943;-76
2022/11/30 07:26:05;;;;;;;;;;;6.80;90.60;;;;;;5028248;28;19984;-76
2022/11/30 07:28:31;;;;;;;;;;;6.80;90.60;;;;;;5019200;28;19948;-76
2022/11/30 07:30:57;;;;;;;;;;;6.80;90.60;;;;;;5036378;28;19917;-76
2022/11/30 07:33:22;;;;;;;;;;;6.80;90.60;;;;;;5036898;28;19917;-76
2022/11/30 07:35:48;;;;;;;;;;;6.80;90.60;;;;;;5038135;28;20378;-76
2022/11/30 07:38:13;;;;;;;;;;;6.80;90.60;;;;;;5030427;28;19917;-75
2022/11/30 07:40:39;;;;;;;;;;;6.80;90.60;;;;;;5022414;28;19961;-76
2022/11/30 07:43:04;;;;;;;;;;;6.80;90.60;;;;;;5036467;28;19921;-75
2022/11/30 07:45:30;;;;;;;;;;;6.80;90.60;;;;;;5034342;28;19956;-75
2022/11/30 07:47:57;;;;;;;;;;;6.80;90.60;;;;;;5033346;28;19929;-76
2022/11/30 07:50:22;;;;;;;;;;;6.80;90.60;;;;;;5027245;28;19920;-76
2022/11/30 07:52:48;;;;;;;;;;;6.80;90.60;;;;;;5031995;28;19928;-76
2022/11/30 07:55:13;;;;;;;;;;;6.80;90.60;;;;;;5035658;28;19917;-76
2022/11/30 07:57:39;;;;;;;;;;;6.90;90.60;;;;;;5035377;28;20080;-75
2022/11/30 08:00:05;;;;;;;;;;;6.90;90.60;;;;;;5038150;28;19925;-76
2022/11/30 08:02:30;;;;;;;;;;;6.90;90.60;;;;;;5034734;28;19979;-76
2022/11/30 08:04:57;;;;;;;;;;;6.90;90.60;;;;;;5033170;28;19939;-76
2022/11/30 08:07:23;;;;;;;;;;;6.90;90.60;;;;;;5051411;28;19939;-75
2022/11/30 08:09:48;;;;;;;;;;;6.90;90.60;;;;;;5033825;28;19925;-76
2022/11/30 08:12:14;;;;;;;;;;;6.90;90.60;;;;;;5039698;28;19925;-76
2022/11/30 08:14:39;;;;;;;;;;;6.90;90.60;;;;;;5031539;28;19948;-76
2022/11/30 08:17:05;;;;;;;;;;;6.90;90.70;;;;;;5036324;28;20290;-76
2022/11/30 08:19:30;;;;;;;;;;;6.90;90.60;;;;;;5033903;28;19925;-77
2022/11/30 08:21:55;;;;;;;;;;;7.00;90.70;;;;;;5032527;28;19917;-76
2022/11/30 08:24:21;;;;;;;;;;;6.90;90.60;;;;;;5052964;28;20326;-76
2022/11/30 08:26:49;;;;;;;;;;;7.00;90.70;;;;;;5054035;28;19925;-76
2022/11/30 08:29:14;;;;;;;;;;;7.00;90.70;;;;;;5037007;28;20346;-75
2022/11/30 08:31:40;;;;;;;;;;;7.00;90.60;;;;;;5038243;28;20354;-76
2022/11/30 08:34:06;;;;;;;;;;;7.00;90.60;;;;;;5036185;28;19978;-76
2022/11/30 08:36:32;;;;;;;;;;;7.00;90.60;;;;;;5037623;28;19921;-77
2022/11/30 08:38:57;;;;;;;;;;;7.00;90.60;;;;;;5038925;28;19912;-76
2022/11/30 08:41:23;;;;;;;;;;;7.00;90.60;;;;;;5049017;28;20385;-75
2022/11/30 08:43:48;;;;;;;;;;;7.00;90.60;;;;;;5033431;28;19955;-76
2022/11/30 08:46:14;;;;;;;;;;;7.10;90.60;;;;;;5031747;28;19921;-75
2022/11/30 08:48:40;;;;;;;;;;;7.10;90.60;;;;;;5035222;28;19932;-76
2022/11/30 08:51:06;;;;;;;;;;;7.10;90.60;;;;;;5030991;28;20047;-76
2022/11/30 08:53:32;;;;;;;;;;;7.10;90.60;;;;;;5028758;28;19925;-76
2022/11/30 08:55:58;;;;;;;;;;;7.10;90.60;;;;;;5034847;28;19921;-76
2022/11/30 08:58:24;;;;;;;;;;;7.10;90.60;;;;;;5016080;28;19917;-76
2022/11/30 09:00:49;;;;;;;;;;;7.10;90.60;;;;;;5032672;28;19951;-76
2022/11/30 09:03:15;;;;;;;;;;;7.20;90.60;;;;;;5022936;28;19920;-76
2022/11/30 09:05:40;;;;;;;;;;;7.10;90.60;;;;;;5022808;28;19920;-76
2022/11/30 09:08:06;;;;;;;;;;;7.20;90.60;;;;;;5033463;28;19925;-76
2022/11/30 09:10:31;;;;;;;;;;;7.20;90.60;;;;;;5022040;28;20013;-76
2022/11/30 09:12:57;;;;;;;;;;;7.20;90.60;;;;;;5024255;28;19949;-75
2022/11/30 09:15:22;;;;;;;;;;;7.20;90.60;;;;;;5026358;28;19928;-76
2022/11/30 09:17:48;;;;;;;;;;;7.20;90.60;;;;;;5034136;28;19921;-75
2022/11/30 09:20:13;;;;;;;;;;;7.20;90.60;;;;;;5015276;28;20644;-74
2022/11/30 09:22:39;;;;;;;;;;;7.20;90.60;;;;;;5050154;28;19940;-76
2022/11/30 09:25:04;;;;;;;;;;;7.20;90.60;;;;;;5036633;28;20332;-76
2022/11/30 09:27:31;;;;;;;;;;;7.20;90.60;;;;;;5050262;28;19913;-75
2022/11/30 09:29:57;;;;;;;;;;;7.20;90.60;;;;;;5051558;28;19925;-75
2022/11/30 09:32:23;;;;;;;;;;;7.30;90.60;;;;;;5051515;28;19921;-75
2022/11/30 09:34:49;;;;;;;;;;;7.20;90.60;;;;;;5020929;28;19917;-77
2022/11/30 09:37:14;;;;;;;;;;;7.20;90.50;;;;;;5031975;28;19919;-74
2022/11/30 09:39:40;;;;;;;;;;;7.30;90.60;;;;;;5053390;28;19920;-76
2022/11/30 09:42:24;;;;;;;;;;;7.30;90.60;;;;;;5051480;28;19925;-76
2022/11/30 09:45:03;;;;;;;;;;;7.30;90.60;;;;;;5022350;28;19917;-76
2022/11/30 09:47:44;;;;;;;;;;;7.30;90.60;;;;;;5018994;28;19935;-76
2022/11/30 09:50:11;;;;;;;;;;;7.30;90.60;;;;;;5017005;28;19931;-74
2022/11/30 09:52:39;;;;;;;;;;;7.30;90.60;;;;;;5036775;28;19988;-75
2022/11/30 09:55:06;;;;;;;;;;;7.30;90.60;;;;;;5053299;28;20018;-76
2022/11/30 09:57:42;;;;;;;;;;;7.30;90.50;;;;;;5010599;28;19932;-75
2022/11/30 10:00:13;;;;;;;;;;;7.40;90.60;;;;;;5056242;28;19924;-76
2022/11/30 10:02:39;;;;;;;;;;;7.40;90.60;;;;;;5054966;28;19925;-76
2022/11/30 10:05:15;;;;;;;;;;;7.30;90.60;;;;;;5037932;28;20293;-75
2022/11/30 10:07:47;;;;;;;;;;;7.40;90.60;;;;;;5045694;28;19921;-75
2022/11/30 10:10:24;;;;;;;;;;;7.40;90.60;;;;;;5038741;28;19951;-76
2022/11/30 10:12:52;;;;;;;;;;;7.40;90.60;;;;;;5019690;28;19925;-76
2022/11/30 10:15:33;;;;;;;;;;;7.40;90.60;;;;;;5036655;28;19940;-76
2022/11/30 10:18:03;;;;;;;;;;;7.40;90.50;;;;;;5027265;28;20005;-76
2022/11/30 10:20:43;;;;;;;;;;;7.40;90.60;;;;;;5035361;28;19917;-76
2022/11/30 10:23:09;;;;;;;;;;;7.40;90.50;;;;;;5034256;28;19923;-75
2022/11/30 10:25:46;;;;;;;;;;;7.40;90.50;;;;;;5037395;28;20015;-76
2022/11/30 10:28:20;;;;;;;;;;;7.40;90.60;;;;;;5025011;28;19929;-76
2022/11/30 10:30:46;;;;;;;;;;;7.40;90.50;;;;;;5039184;28;19917;-76
2022/11/30 10:33:14;;;;;;;;;;;7.40;90.50;;;;;;5035692;28;19960;-76
2022/11/30 10:35:41;;;;;;;;;;;7.40;90.50;;;;;;5034482;28;19921;-76
2022/11/30 10:38:29;;;;;;;;;;;7.40;90.50;;;;;;5019290;28;19921;-76
2022/11/30 10:40:58;;;;;;;;;;;7.40;90.50;;;;;;5034409;28;20483;-76
2022/11/30 10:43:28;;;;;;;;;;;7.40;90.50;;;;;;5034464;28;19923;-76
2022/11/30 10:45:54;;;;;;;;;;;7.50;90.50;;;;;;5032885;28;19925;-76
2022/11/30 10:48:21;;;;;;;;;;;7.50;90.50;;;;;;5031489;28;19925;-75
2022/11/30 10:50:46;;;;;;;;;;;7.40;90.50;;;;;;5036553;28;19917;-75
2022/11/30 10:53:12;;;;;;;;;;;7.50;90.50;;;;;;5034940;28;19951;-76
2022/11/30 10:55:41;;;;;;;;;;;7.40;90.50;;;;;;5029976;28;20428;-75
2022/11/30 10:58:16;;;;;;;;;;;7.40;90.50;;;;;;5032815;28;19936;-76
2022/11/30 11:00:43;;;;;;;;;;;7.40;90.50;;;;;;5029712;28;20015;-76
2022/11/30 11:03:21;;;;;;;;;;;7.40;90.50;;;;;;5035230;28;19921;-76
2022/11/30 11:05:47;;;;;;;;;;;7.40;90.50;;;;;;5033404;28;19921;-76
2022/11/30 11:08:16;;;;;;;;;;;7.40;90.50;;;;;;5035725;28;19952;-76
2022/11/30 11:10:42;;;;;;;;;;;7.40;90.50;;;;;;5014432;28;19917;-76
2022/11/30 11:13:18;;;;;;;;;;;7.40;90.50;;;;;;5040904;28;19917;-76
2022/11/30 11:15:59;;;;;;;;;;;7.50;90.50;;;;;;5032780;28;19943;-76
2022/11/30 11:18:25;;;;;;;;;;;7.40;90.50;;;;;;5027387;28;19934;-75
2022/11/30 11:21:00;;;;;;;;;;;7.40;90.50;;;;;;5031968;28;20234;-75
2022/11/30 11:23:33;;;;;;;;;;;7.50;90.50;;;;;;5055845;28;19917;-76
2022/11/30 11:25:58;;;;;;;;;;;7.50;90.50;;;;;;5055800;28;19951;-75
2022/11/30 11:28:24;;;;;;;;;;;7.50;90.50;;;;;;5055047;28;20597;-76
2022/11/30 11:30:53;;;;;;;;;;;7.50;90.50;;;;;;5056022;28;19925;-76
2022/11/30 11:33:20;;;;;;;;;;;7.50;90.50;;;;;;5020186;28;20300;-77
2022/11/30 11:35:49;;;;;;;;;;;7.50;90.50;;;;;;5038815;28;19925;-76
2022/11/30 11:38:26;;;;;;;;;;;7.50;90.50;;;;;;5053816;28;19947;-76
2022/11/30 11:40:55;;;;;;;;;;;7.50;90.50;;;;;;5036019;28;19932;-74
2022/11/30 11:43:21;;;;;;;;;;;7.50;90.50;;;;;;5032069;28;19920;-75
2022/11/30 11:45:51;;;;;;;;;;;7.50;90.50;;;;;;5038701;28;19955;-76
2022/11/30 11:48:30;;;;;;;;;;;7.50;90.80;;;;;;5053920;28;19995;-75
2022/11/30 11:51:06;;;;;;;;;;;7.50;90.50;;;;;;5025330;28;20403;-75
2022/11/30 11:53:37;;;;;;;;;;;7.50;90.50;;;;;;5026873;28;19917;-75
2022/11/30 11:56:10;;;;;;;;;;;7.50;90.50;;;;;;5034525;28;19984;-75
2022/11/30 11:58:56;;;;;;;;;;;7.50;90.50;;;;;;5054400;28;19943;-75
2022/11/30 12:01:40;;;;;;;;;;;7.50;90.50;;;;;;5051771;28;19921;-75
2022/11/30 12:04:21;;;;;;;;;;;7.50;90.40;;;;;;5044183;28;19921;-75
2022/11/30 12:06:46;;;;;;;;;;;7.50;90.40;;;;;;5034761;28;19959;-76
2022/11/30 12:09:16;;;;;;;;;;;7.50;90.40;;;;;;5054286;28;19928;-75
2022/11/30 12:11:42;;;;;;;;;;;7.50;90.40;;;;;;5011559;28;19935;-76
2022/11/30 12:14:11;;;;;;;;;;;7.50;90.40;;;;;;5026145;28;19921;-75
2022/11/30 12:16:55;;;;;;;;;;;7.50;90.40;;;;;;5033138;28;20000;-74
2022/11/30 12:19:22;;;;;;;;;;;7.50;90.40;;;;;;5054650;28;19986;-76
2022/11/30 12:21:56;;;;;;;;;;;7.50;90.40;;;;;;5033361;28;19925;-75
2022/11/30 12:24:29;;;;;;;;;;;7.50;90.40;;;;;;5051983;28;19988;-75
2022/11/30 12:26:58;;;;;;;;;;;7.50;90.40;;;;;;5051111;28;20381;-75
2022/11/30 12:29:31;;;;;;;;;;;7.50;90.40;;;;;;5055071;28;19921;-76
2022/11/30 12:32:15;;;;;;;;;;;7.50;90.40;;;;;;5034079;28;19917;-76
2022/11/30 12:34:48;;;;;;;;;;;7.50;90.50;;;;;;5052530;28;20572;-75
2022/11/30 12:37:17;;;;;;;;;;;7.50;90.50;;;;;;5033876;28;19924;-75
2022/11/30 12:39:55;;;;;;;;;;;7.50;90.50;;;;;;5036372;28;19927;-75
2022/11/30 12:42:21;;;;;;;;;;;7.40;90.50;;;;;;5020493;28;19920;-75
2022/11/30 12:45:10;;;;;;;;;;;7.50;90.50;;;;;;5039089;28;19955;-75
2022/11/30 12:47:35;;;;;;;;;;;7.50;90.50;;;;;;5038623;28;19975;-75
2022/11/30 12:50:15;;;;;;;;;;;7.50;90.50;;;;;;5052568;28;19933;-76
2022/11/30 12:52:40;;;;;;;;;;;7.50;90.50;;;;;;5018275;28;19928;-75
2022/11/30 12:55:13;;;;;;;;;;;7.50;90.50;;;;;;5052943;28;19921;-75
2022/11/30 12:57:38;;;;;;;;;;;7.50;90.50;;;;;;5048767;28;19988;-75
2022/11/30 13:00:04;;;;;;;;;;;7.50;90.50;;;;;;5052812;28;19948;-76
2022/11/30 13:02:36;;;;;;;;;;;7.50;90.50;;;;;;5052283;28;19928;-76
2022/11/30 13:05:02;;;;;;;;;;;7.50;90.40;;;;;;4998434;28;19971;-76
2022/11/30 13:07:27;;;;;;;;;;;7.50;90.40;;;;;;5053444;28;19920;-76
2022/11/30 13:09:57;;;;;;;;;;;7.60;90.50;;;;;;5053516;28;19995;-74
2022/11/30 13:12:23;;;;;;;;;;;7.50;90.40;;;;;;5052524;28;20022;-75
2022/11/30 13:14:50;;;;;;;;;;;7.50;90.40;;;;;;5043103;28;19956;-75
2022/11/30 13:17:16;;;;;;;;;;;7.60;90.50;;;;;;5053432;28;20559;-76
2022/11/30 13:19:41;;;;;;;;;;;7.60;90.50;;;;;;5035016;28;20667;-75
2022/11/30 13:22:18;;;;;;;;;;;7.60;90.50;;;;;;5037308;28;19917;-76
2022/11/30 13:24:49;;;;;;;;;;;7.60;90.40;;;;;;5044129;28;19932;-76
2022/11/30 13:27:17;;;;;;;;;;;7.60;90.50;;;;;;5029467;28;19921;-75
2022/11/30 13:29:52;;;;;;;;;;;7.60;90.40;;;;;;5031838;28;19925;-75
2022/11/30 13:32:17;;;;;;;;;;;7.60;90.50;;;;;;5032467;28;19921;-75
2022/11/30 13:34:43;;;;;;;;;;;7.60;90.40;;;;;;5033243;28;19943;-75
2022/11/30 13:37:12;;;;;;;;;;;7.60;90.40;;;;;;5042078;28;20375;-74
2022/11/30 13:39:50;;;;;;;;;;;7.60;90.50;;;;;;5012907;28;19928;-75
2022/11/30 13:42:16;;;;;;;;;;;7.60;90.50;;;;;;5031571;28;20985;-74
2022/11/30 13:44:41;;;;;;;;;;;7.60;90.40;;;;;;5033879;28;19971;-75
2022/11/30 13:47:17;;;;;;;;;;;7.60;90.50;;;;;;5030195;28;20346;-75
2022/11/30 13:49:42;;;;;;;;;;;7.60;90.40;;;;;;5006993;28;20141;-75
2022/11/30 13:52:11;;;;;;;;;;;7.60;90.50;;;;;;5028751;28;19924;-75
2022/11/30 13:54:45;;;;;;;;;;;7.60;90.50;;;;;;5035630;28;19955;-75
2022/11/30 13:57:15;;;;;;;;;;;7.60;90.50;;;;;;5031833;28;20267;-75
2022/11/30 13:59:53;;;;;;;;;;;7.60;90.50;;;;;;5029954;28;20051;-75
2022/11/30 14:02:53;;;;;;;;;;;7.60;90.50;;;;;;5034689;28;19924;-75
2022/11/30 14:05:16;;;;;;;;;;;7.60;90.80;;;;;;5037681;28;19967;-75
2022/11/30 14:07:51;;;;;;;;;;;7.60;90.40;;;;;;5019792;28;19901;-74
2022/11/30 14:10:25;;;;;;;;;;;7.60;90.50;;;;;;5040202;28;20315;-74
2022/11/30 14:12:57;;;;;;;;;;;7.50;90.40;;;;;;5032164;28;19917;-75
2022/11/30 14:15:48;;;;;;;;;;;7.60;90.40;;;;;;5028953;28;19918;-75
2022/11/30 14:18:20;;;;;;;;;;;7.50;90.40;;;;;;5003548;28;20006;-76
2022/11/30 14:20:48;;;;;;;;;;;7.50;90.40;;;;;;5037028;28;19922;-74
2022/11/30 14:23:16;;;;;;;;;;;7.60;90.50;;;;;;5031133;28;19925;-76
2022/11/30 14:25:45;;;;;;;;;;;7.50;90.40;;;;;;5029112;28;19924;-77
2022/11/30 14:28:14;;;;;;;;;;;7.50;90.40;;;;;;5026798;28;19928;-77
2022/11/30 14:30:40;;;;;;;;;;;7.50;90.40;;;;;;5026413;28;19921;-76
2022/11/30 14:33:10;;;;;;;;;;;7.50;90.40;;;;;;5016371;28;20310;-78
2022/11/30 14:35:39;;;;;;;;;;;7.50;90.80;;;;;;5011328;28;19924;-77